Time;durP1;ratioP1;P1;durP2;ratioP2;P2;SDS_P1;SDS_P2;PMS_P1;PMS_P2;Temp;Humidity;BMP_temperature;BMP_pressure;BME280_temperature;BME280_humidity;BME280_pressure;Samples;Min_cycle;Max_cycle;Signal;HPM_P1;HPM_P2
2021/08/04 00:01:21;;;;;;;3.48;2.80;;;;;;;15.61;71.29;99266.89;532638;1089;116577;-60
2021/08/04 00:11:28;;;;;;;4.40;3.60;;;;;;;15.63;71.68;99286.10;532567;1090;117532;-60
2021/08/04 00:21:35;;;;;;;3.97;3.57;;;;;;;15.63;72.21;99256.99;532659;1088;116136;-60
2021/08/04 00:31:43;;;;;;;5.20;4.43;;;;;;;15.60;72.31;99265.22;531808;1088;116463;-60
2021/08/04 00:41:50;;;;;;;4.93;3.60;;;;;;;15.52;72.04;99275.66;532600;1088;116408;-60
2021/08/04 00:51:57;;;;;;;3.67;3.30;;;;;;;15.49;72.24;99289.16;532607;1088;115864;-60
2021/08/04 01:02:14;;;;;;;6.00;4.43;;;;;;;15.40;72.53;99243.22;531859;1090;116238;-60
2021/08/04 01:12:27;;;;;;;4.10;3.80;;;;;;;15.25;73.26;99224.27;532568;1089;116771;-60
2021/08/04 01:22:51;;;;;;;4.00;3.00;;;;;;;14.98;73.06;99231.05;531828;1088;116456;-60
2021/08/04 01:32:58;;;;;;;4.80;3.57;;;;;;;14.79;73.60;99210.69;532585;1089;116469;-60
2021/08/04 01:43:05;;;;;;;5.97;4.13;;;;;;;14.67;74.16;99220.48;532594;1088;115686;-60
2021/08/04 01:53:12;;;;;;;4.63;4.23;;;;;;;14.56;74.43;99226.72;531817;1088;115915;-60
2021/08/04 02:03:18;;;;;;;5.07;4.57;;;;;;;14.56;74.88;99230.18;532566;1089;116118;-60
2021/08/04 02:13:32;;;;;;;4.47;4.03;;;;;;;14.69;75.06;99237.04;531858;1089;116158;-60
2021/08/04 02:23:55;;;;;;;6.08;5.23;;;;;;;14.78;75.25;99220.41;532561;1089;115940;-60
2021/08/04 02:34:03;;;;;;;6.03;5.23;;;;;;;14.76;75.77;99316.65;532606;1089;115886;-60
2021/08/04 02:44:11;;;;;;;5.35;3.13;;;;;;;14.81;75.00;99328.50;531797;1088;116958;-60
2021/08/04 02:54:20;;;;;;;4.10;3.73;;;;;;;14.79;74.98;99321.70;532507;1089;116488;-60
2021/08/04 03:04:27;;;;;;;5.23;4.73;;;;;;;14.68;75.79;99304.07;531836;1088;116348;-60
2021/08/04 03:14:36;;;;;;;5.57;3.80;;;;;;;14.63;76.48;99290.44;532554;1088;116165;-60
2021/08/04 03:24:43;;;;;;;4.33;3.73;;;;;;;14.53;76.18;99283.30;532635;1089;116900;-60
2021/08/04 03:34:50;;;;;;;4.47;2.80;;;;;;;14.52;76.45;99270.20;531775;1088;116751;-60
2021/08/04 03:44:56;;;;;;;3.57;2.97;;;;;;;14.35;76.68;99256.65;532564;1088;116561;-60
2021/08/04 03:55:03;;;;;;;4.30;3.90;;;;;;;14.24;77.00;99252.27;532491;1088;116443;-60
2021/08/04 04:05:12;;;;;;;5.00;3.60;;;;;;;14.35;77.31;99261.93;531867;1088;116924;-60
2021/08/04 04:15:19;;;;;;;4.13;3.73;;;;;;;14.43;77.55;99254.20;532475;1089;116150;-60
2021/08/04 04:25:26;;;;;;;5.43;4.93;;;;;;;14.42;77.81;99241.93;531763;1089;116440;-61
2021/08/04 04:35:32;;;;;;;6.67;5.60;;;;;;;14.60;78.14;99265.10;532593;1088;116431;-60
2021/08/04 04:45:40;;;;;;;5.90;5.43;;;;;;;14.87;78.11;99270.80;532333;1088;117033;-60
2021/08/04 04:55:47;;;;;;;5.83;5.25;;;;;;;15.41;77.83;99277.48;531795;1090;116476;-61
2021/08/04 05:05:53;;;;;;;8.03;6.77;;;;;;;15.80;77.49;99278.45;532474;1089;116302;-61
2021/08/04 05:16:00;;;;;;;6.23;5.27;;;;;;;16.20;77.25;99293.34;532500;1089;115990;-61
2021/08/04 05:26:07;;;;;;;6.17;5.20;;;;;;;16.50;76.25;99296.77;531823;1088;116246;-60
2021/08/04 05:36:14;;;;;;;8.30;4.80;;;;;;;16.77;75.95;99297.78;532535;1088;116652;-61
2021/08/04 05:46:21;;;;;;;7.03;5.33;;;;;;;16.78;74.96;99310.06;532597;1089;116322;-61
2021/08/04 05:56:28;;;;;;;5.30;4.80;;;;;;;16.52;74.67;99307.24;532581;1089;115865;-61
2021/08/04 06:06:34;;;;;;;5.93;5.33;;;;;;;16.65;75.18;99302.45;532532;1090;116391;-61
2021/08/04 06:16:41;;;;;;;9.50;4.80;;;;;;;17.08;75.05;99307.30;531886;1088;116927;-61
2021/08/04 06:26:49;;;;;;;5.40;4.90;;;;;;;18.34;73.70;99319.80;532544;1090;116338;-61
2021/08/04 06:36:55;;;;;;;5.47;4.20;;;;;;;21.16;71.58;99313.22;532599;1089;116475;-61
2021/08/04 06:47:02;;;;;;;4.93;3.33;;;;;;;22.43;65.85;99311.97;531862;1089;115998;-61
2021/08/04 06:57:09;;;;;;;3.57;3.27;;;;;;;21.90;64.44;99326.13;532488;1089;116414;-61
2021/08/04 07:07:17;;;;;;;5.33;3.40;;;;;;;21.41;63.87;99329.92;532550;1089;115868;-61
2021/08/04 07:17:24;;;;;;;3.43;3.13;;;;;;;21.27;64.10;99337.67;520744;1089;116420;-61
2021/08/04 07:27:31;;;;;;;3.77;3.47;;;;;;;21.21;63.79;99338.38;518462;1090;115943;-65
2021/08/04 07:37:37;;;;;;;3.93;2.50;;;;;;;21.14;63.19;99332.06;527998;1089;116353;-63
2021/08/04 07:47:44;;;;;;;4.53;1.87;;;;;;;21.53;62.15;99349.06;532515;1089;115921;-63
2021/08/04 07:57:51;;;;;;;2.60;1.60;;;;;;;21.32;60.93;99342.48;526754;1090;116112;-63
2021/08/04 08:08:03;;;;;;;4.47;1.60;;;;;;;21.40;60.95;99338.94;514074;1089;116214;-58
2021/08/04 08:18:12;;;;;;;2.73;1.40;;;;;;;21.26;61.88;99352.03;532598;1089;115995;-60
2021/08/04 08:28:19;;;;;;;3.00;1.70;;;;;;;20.66;62.31;99356.03;532563;1088;116366;-60
2021/08/04 08:38:26;;;;;;;3.07;1.73;;;;;;;20.12;63.01;99355.58;532583;1088;116017;-62
2021/08/04 08:48:33;;;;;;;1.37;1.20;;;;;;;20.01;62.05;99358.58;532609;1089;116884;-60
2021/08/04 08:58:39;;;;;;;1.37;1.27;;;;;;;20.32;62.10;99354.44;531902;1089;116322;-60
2021/08/04 09:08:47;;;;;;;2.10;1.90;;;;;;;20.43;61.67;99346.91;532580;1089;116326;-60
2021/08/04 09:18:54;;;;;;;4.63;2.93;;;;;;;20.69;60.67;99351.19;532586;1088;116824;-60
2021/08/04 09:29:03;;;;;;;2.57;2.10;;;;;;;20.56;60.39;99350.89;531812;1088;116286;-61
2021/08/04 09:39:10;;;;;;;2.13;1.70;;;;;;;20.68;59.94;99359.38;532577;1089;116448;-62
2021/08/04 09:49:18;;;;;;;1.93;1.83;;;;;;;20.91;59.86;99345.34;532543;1088;116451;-63
2021/08/04 09:59:25;;;;;;;2.63;2.40;;;;;;;21.56;59.51;99340.69;532530;1090;116996;-67
2021/08/04 10:09:32;;;;;;;5.48;1.93;;;;;;;22.42;57.85;99341.56;532563;1089;116202;-64
2021/08/04 10:19:39;;;;;;;2.03;1.90;;;;;;;23.25;57.06;99354.91;531786;1089;117088;-62
2021/08/04 10:29:46;;;;;;;2.30;1.88;;;;;;;23.98;55.53;99354.06;532593;1088;116129;-62
2021/08/04 10:39:56;;;;;;;2.83;1.83;;;;;;;24.83;54.49;99344.44;532582;1088;116271;-63
2021/08/04 10:50:14;;;;;;;2.57;1.70;;;;;;;25.01;52.87;99349.28;531887;1088;116659;-62
2021/08/04 11:00:25;;;;;;;2.27;2.07;;;;;;;23.91;53.33;99353.16;523563;1089;10112960;-62
2021/08/04 11:10:40;;;;;;;2.87;2.37;;;;;;;22.80;55.91;99354.94;531788;1088;116574;-62
2021/08/04 11:21:11;;;;;;;3.80;2.50;;;;;;;23.04;57.36;99351.13;530265;1088;116519;-62
2021/08/04 11:31:19;;;;;;;2.40;2.20;;;;;;;23.43;57.24;99340.28;532554;1088;117201;-62
2021/08/04 11:41:30;;;;;;;2.73;2.53;;;;;;;23.89;55.96;99342.65;532214;1088;116354;-62
2021/08/04 11:51:43;;;;;;;2.57;2.37;;;;;;;23.56;55.28;99336.94;532488;1087;116375;-62
2021/08/04 12:02:03;;;;;;;2.97;2.40;;;;;;;23.17;54.95;99341.61;531164;1088;116418;-63
2021/08/04 12:12:15;;;;;;;2.00;1.67;;;;;;;22.69;53.73;99334.80;527300;1089;116346;-63
2021/08/04 12:22:25;;;;;;;2.03;1.83;;;;;;;22.35;53.98;99328.94;532494;1089;115993;-63
2021/08/04 12:32:33;;;;;;;3.43;1.73;;;;;;;21.98;54.00;99319.88;531022;1088;115766;-61
2021/08/04 12:42:40;;;;;;;2.30;2.13;;;;;;;21.96;54.91;99309.39;518921;1088;115889;-64
2021/08/04 12:52:47;;;;;;;3.73;3.40;;;;;;;22.44;55.12;99302.93;530582;1088;116010;-72
2021/08/04 13:02:54;;;;;;;3.13;2.90;;;;;;;22.34;55.31;99305.88;532388;1089;117065;-63
2021/08/04 13:13:02;;;;;;;4.00;2.60;;;;;;;22.24;54.33;99306.13;532541;1088;118984;-63
2021/08/04 13:23:09;;;;;;;3.00;2.50;;;;;;;22.37;53.93;99312.69;531776;1088;116219;-65
2021/08/04 13:33:18;;;;;;;2.45;2.25;;;;;;;22.44;54.94;99307.44;530568;1089;116560;-65
2021/08/04 13:43:25;;;;;;;4.33;3.00;;;;;;;22.59;54.31;99299.45;532483;1088;116466;-63
2021/08/04 13:53:32;;;;;;;3.53;3.23;;;;;;;22.64;54.46;99307.78;532065;1088;179830;-63
2021/08/04 14:03:39;;;;;;;4.83;2.73;;;;;;;22.65;54.37;99299.55;532531;1089;115965;-63
2021/08/04 14:13:45;;;;;;;2.93;2.50;;;;;;;22.46;55.12;99295.55;531738;1089;116364;-61
2021/08/04 14:23:52;;;;;;;4.13;3.20;;;;;;;22.35;55.87;99293.33;532397;1089;116841;-61
2021/08/04 14:33:59;;;;;;;3.33;3.03;;;;;;;22.09;56.36;99275.86;532446;1088;116621;-61
2021/08/04 14:44:06;;;;;;;3.40;3.10;;;;;;;22.16;56.58;99271.43;531802;1088;116500;-61
2021/08/04 14:54:16;;;;;;;3.40;3.20;;;;;;;22.28;56.09;99274.51;532398;1089;116586;-60
2021/08/04 15:04:23;;;;;;;3.34;2.06;;;;;;;22.09;55.30;99263.31;514618;1088;20001590;-60
2021/08/04 15:14:30;;;;;;;1.70;1.60;;;;;;;21.61;55.59;99255.52;532347;1088;117656;-60
2021/08/04 15:24:40;;;;;;;2.85;1.43;;;;;;;21.67;55.82;99256.68;532509;1088;116618;-60
2021/08/04 15:34:47;;;;;;;1.58;1.30;;;;;;;21.58;55.55;99250.52;531758;1090;116464;-60
2021/08/04 15:44:53;;;;;;;2.93;1.30;;;;;;;21.49;55.53;99248.94;532431;1089;115997;-59
2021/08/04 15:55:00;;;;;;;3.23;2.30;;;;;;;21.60;55.31;99232.49;532492;1088;115780;-59
2021/08/04 16:05:08;;;;;;;1.93;1.60;;;;;;;21.34;54.97;99262.22;531697;1089;117085;-60
2021/08/04 16:15:15;;;;;;;1.90;1.63;;;;;;;21.35;55.73;99267.36;524424;1088;116402;-60
2021/08/04 16:25:30;;;;;;;1.90;1.70;;;;;;;21.48;55.47;99274.80;531880;1089;116989;-60
2021/08/04 16:35:37;;;;;;;3.37;1.87;;;;;;;21.52;55.26;99268.09;532650;1089;116114;-60
2021/08/04 16:45:44;;;;;;;3.70;1.90;;;;;;;21.40;55.91;99257.00;523556;1088;10000877;-60
2021/08/04 16:55:51;;;;;;;1.38;1.28;;;;;;;21.35;55.74;99259.35;531681;1088;116598;-60
2021/08/04 17:05:58;;;;;;;2.43;1.47;;;;;;;21.11;55.32;99247.81;532462;1089;116575;-60
2021/08/04 17:16:05;;;;;;;2.60;1.70;;;;;;;20.63;55.85;99253.20;532423;1088;116235;-61
2021/08/04 17:26:12;;;;;;;1.57;1.27;;;;;;;20.00;57.09;99260.98;531704;1089;116463;-60
2021/08/04 17:36:21;;;;;;;4.23;2.97;;;;;;;19.36;58.29;99262.42;532311;1088;116425;-61
2021/08/04 17:46:27;;;;;;;5.63;2.10;;;;;;;18.95;60.18;99270.28;531677;1089;116001;-60
2021/08/04 17:56:34;;;;;;;2.40;1.70;;;;;;;18.51;61.22;99260.59;532407;1088;116163;-61
2021/08/04 18:06:41;;;;;;;9.57;2.50;;;;;;;18.17;62.37;99259.57;532406;1089;116292;-61
2021/08/04 18:16:48;;;;;;;7.37;2.73;;;;;;;17.60;63.88;99250.98;531774;1088;115881;-60
2021/08/04 18:26:56;;;;;;;10.97;3.67;;;;;;;17.26;64.85;99266.73;532351;1089;116011;-57
2021/08/04 18:37:03;;;;;;;6.40;2.85;;;;;;;16.79;66.15;99282.59;532340;1088;116827;-58
2021/08/04 18:47:10;;;;;;;5.80;3.43;;;;;;;16.52;66.59;99299.30;531629;1089;115848;-58
2021/08/04 18:57:16;;;;;;;12.67;6.87;;;;;;;16.18;67.88;99300.60;532382;1088;116151;-58
2021/08/04 19:07:23;;;;;;;15.40;6.23;;;;;;;15.94;68.66;99301.89;532285;1088;117088;-58
2021/08/04 19:17:33;;;;;;;16.83;10.70;;;;;;;15.72;69.21;99295.05;532358;1088;116201;-57
2021/08/04 19:27:42;;;;;;;12.17;7.67;;;;;;;15.47;69.69;99299.91;532452;1088;116374;-57
2021/08/04 19:37:49;;;;;;;11.88;5.73;;;;;;;15.36;70.43;99310.61;531729;1089;116581;-58
2021/08/04 19:47:56;;;;;;;9.90;5.43;;;;;;;15.19;70.65;99312.09;532463;1088;117091;-58
2021/08/04 19:58:03;;;;;;;7.45;5.45;;;;;;;15.04;71.42;99301.88;523794;1088;115860;-57
2021/08/04 20:08:11;;;;;;;11.73;6.43;;;;;;;14.82;71.97;99305.56;531743;1088;116713;-58
2021/08/04 20:18:18;;;;;;;13.50;6.50;;;;;;;14.65;72.40;99305.16;532389;1088;116210;-58
2021/08/04 20:28:25;;;;;;;13.40;9.40;;;;;;;14.55;72.57;99299.02;524523;1088;116349;-58
2021/08/04 20:38:33;;;;;;;14.80;9.83;;;;;;;14.43;72.69;99291.17;532230;1088;173729;-58
2021/08/04 20:48:40;;;;;;;12.90;11.60;;;;;;;14.50;74.20;99290.64;532447;1089;117892;-57
2021/08/04 20:58:46;;;;;;;10.20;8.90;;;;;;;14.28;73.58;99281.89;529436;1088;116767;-61
2021/08/04 21:08:53;;;;;;;11.20;9.53;;;;;;;14.21;74.52;99271.02;527731;1089;116940;-67
2021/08/04 21:19:00;;;;;;;18.47;11.20;;;;;;;14.04;74.07;99272.44;532542;1088;116313;-66
2021/08/04 21:29:07;;;;;;;19.30;11.13;;;;;;;13.87;74.25;99268.56;522528;1090;117405;-66
2021/08/04 21:39:14;;;;;;;15.40;13.00;;;;;;;13.84;75.65;99260.91;516017;1090;116103;-66
2021/08/04 21:49:21;;;;;;;22.13;10.80;;;;;;;13.84;76.12;99258.27;532435;1088;117358;-67
2021/08/04 21:59:28;;;;;;;14.70;10.90;;;;;;;13.81;75.95;99259.36;530230;1089;116893;-65
2021/08/04 22:09:34;;;;;;;15.63;10.30;;;;;;;13.71;75.30;99248.74;532452;1088;116548;-66
2021/08/04 22:19:41;;;;;;;14.53;11.17;;;;;;;13.64;75.90;99252.84;531685;1088;116652;-67
2021/08/04 22:29:48;;;;;;;10.53;9.07;;;;;;;13.49;75.80;99247.02;528649;1089;116483;-66
2021/08/04 22:39:55;;;;;;;12.97;10.43;;;;;;;13.45;76.66;99233.27;532395;1088;115908;-67
2021/08/04 22:50:02;;;;;;;11.90;10.03;;;;;;;13.37;76.15;99235.66;531580;1088;117091;-63
2021/08/04 23:00:12;;;;;;;11.70;9.73;;;;;;;13.22;76.17;99226.37;532270;1088;116415;-61
2021/08/04 23:10:18;;;;;;;12.30;9.97;;;;;;;13.13;76.13;99215.59;532433;1089;116686;-67
2021/08/04 23:20:25;;;;;;;11.40;9.43;;;;;;;13.02;76.15;99210.35;532180;1088;116257;-67
2021/08/04 23:30:32;;;;;;;19.77;13.53;;;;;;;12.89;76.66;99200.80;532391;1090;116269;-61
2021/08/04 23:40:39;;;;;;;14.55;11.50;;;;;;;12.87;77.05;99197.45;524946;1088;116460;-68
2021/08/04 23:50:46;;;;;;;16.67;14.83;;;;;;;12.88;78.08;99199.13;532545;1088;116655;-64
